sensor_id;sensor_type;location;lat;lon;timestamp;P1;durP1;ratioP1;P2;durP2;ratioP2
45392;SDS011;31129;44.810;10.334;2022-08-19T00:02:12;25.80;;;19.85;;
45392;SDS011;31129;44.810;10.334;2022-08-19T00:04:37;27.42;;;18.85;;
45392;SDS011;31129;44.810;10.334;2022-08-19T00:07:05;23.58;;;19.20;;
45392;SDS011;31129;44.810;10.334;2022-08-19T00:09:31;24.38;;;19.40;;
45392;SDS011;31129;44.810;10.334;2022-08-19T00:11:57;29.05;;;19.60;;
45392;SDS011;31129;44.810;10.334;2022-08-19T00:14:23;27.13;;;20.02;;
45392;SDS011;31129;44.810;10.334;2022-08-19T00:16:50;26.15;;;20.40;;
45392;SDS011;31129;44.810;10.334;2022-08-19T00:19:19;22.85;;;18.60;;
45392;SDS011;31129;44.810;10.334;2022-08-19T00:21:44;22.05;;;18.58;;
45392;SDS011;31129;44.810;10.334;2022-08-19T00:24:11;21.90;;;17.92;;
45392;SDS011;31129;44.810;10.334;2022-08-19T00:26:37;22.05;;;19.08;;
45392;SDS011;31129;44.810;10.334;2022-08-19T00:29:04;23.38;;;20.13;;
45392;SDS011;31129;44.810;10.334;2022-08-19T00:31:31;23.80;;;17.48;;
45392;SDS011;31129;44.810;10.334;2022-08-19T00:33:57;23.90;;;16.38;;
45392;SDS011;31129;44.810;10.334;2022-08-19T00:36:22;24.25;;;20.13;;
45392;SDS011;31129;44.810;10.334;2022-08-19T00:38:48;23.55;;;19.65;;
45392;SDS011;31129;44.810;10.334;2022-08-19T00:41:17;26.33;;;19.48;;
45392;SDS011;31129;44.810;10.334;2022-08-19T00:46:30;25.08;;;19.45;;
45392;SDS011;31129;44.810;10.334;2022-08-19T00:48:57;29.38;;;20.58;;
45392;SDS011;31129;44.810;10.334;2022-08-19T00:51:28;26.25;;;20.52;;
45392;SDS011;31129;44.810;10.334;2022-08-19T00:53:56;28.25;;;19.90;;
45392;SDS011;31129;44.810;10.334;2022-08-19T00:58:49;26.30;;;20.50;;
45392;SDS011;31129;44.810;10.334;2022-08-19T01:01:15;25.73;;;21.33;;
45392;SDS011;31129;44.810;10.334;2022-08-19T01:03:40;25.55;;;20.30;;
45392;SDS011;31129;44.810;10.334;2022-08-19T01:06:06;32.95;;;22.38;;
45392;SDS011;31129;44.810;10.334;2022-08-19T01:08:32;24.48;;;21.92;;
45392;SDS011;31129;44.810;10.334;2022-08-19T01:10:59;29.38;;;21.98;;
45392;SDS011;31129;44.810;10.334;2022-08-19T01:13:27;25.70;;;20.63;;
45392;SDS011;31129;44.810;10.334;2022-08-19T01:15:57;30.90;;;22.38;;
45392;SDS011;31129;44.810;10.334;2022-08-19T01:18:27;28.30;;;23.05;;
45392;SDS011;31129;44.810;10.334;2022-08-19T01:20:58;28.50;;;22.50;;
45392;SDS011;31129;44.810;10.334;2022-08-19T01:23:27;27.20;;;19.75;;
45392;SDS011;31129;44.810;10.334;2022-08-19T01:26:12;29.85;;;22.42;;
45392;SDS011;31129;44.810;10.334;2022-08-19T01:28:40;26.27;;;21.95;;
45392;SDS011;31129;44.810;10.334;2022-08-19T01:31:11;30.33;;;21.52;;
45392;SDS011;31129;44.810;10.334;2022-08-19T01:33:43;25.73;;;21.95;;
45392;SDS011;31129;44.810;10.334;2022-08-19T01:36:15;27.35;;;20.45;;
45392;SDS011;31129;44.810;10.334;2022-08-19T01:38:47;27.80;;;20.55;;
45392;SDS011;31129;44.810;10.334;2022-08-19T01:41:13;26.83;;;19.35;;
45392;SDS011;31129;44.810;10.334;2022-08-19T01:43:39;29.08;;;22.13;;
45392;SDS011;31129;44.810;10.334;2022-08-19T01:46:05;26.23;;;21.92;;
45392;SDS011;31129;44.810;10.334;2022-08-19T01:48:36;27.17;;;21.65;;
45392;SDS011;31129;44.810;10.334;2022-08-19T01:51:04;26.85;;;21.23;;
45392;SDS011;31129;44.810;10.334;2022-08-19T01:53:30;31.25;;;21.80;;
45392;SDS011;31129;44.810;10.334;2022-08-19T01:55:56;31.38;;;23.48;;
45392;SDS011;31129;44.810;10.334;2022-08-19T01:58:23;31.20;;;22.67;;
45392;SDS011;31129;44.810;10.334;2022-08-19T02:00:56;28.85;;;20.63;;
45392;SDS011;31129;44.810;10.334;2022-08-19T02:03:22;24.80;;;20.17;;
45392;SDS011;31129;44.810;10.334;2022-08-19T02:05:48;29.05;;;21.27;;
45392;SDS011;31129;44.810;10.334;2022-08-19T02:08:19;26.55;;;20.60;;
45392;SDS011;31129;44.810;10.334;2022-08-19T02:10:45;24.00;;;21.15;;
45392;SDS011;31129;44.810;10.334;2022-08-19T02:13:11;27.90;;;21.48;;
45392;SDS011;31129;44.810;10.334;2022-08-19T02:18:03;24.67;;;20.75;;
45392;SDS011;31129;44.810;10.334;2022-08-19T02:20:30;30.63;;;21.02;;
45392;SDS011;31129;44.810;10.334;2022-08-19T02:22:56;30.17;;;22.05;;
45392;SDS011;31129;44.810;10.334;2022-08-19T02:25:21;30.98;;;20.38;;
45392;SDS011;31129;44.810;10.334;2022-08-19T02:27:47;19.52;;;11.93;;
45392;SDS011;31129;44.810;10.334;2022-08-19T02:30:13;19.20;;;11.48;;
45392;SDS011;31129;44.810;10.334;2022-08-19T02:32:41;16.35;;;9.50;;
45392;SDS011;31129;44.810;10.334;2022-08-19T02:35:07;20.10;;;11.38;;
45392;SDS011;31129;44.810;10.334;2022-08-19T02:37:33;21.92;;;12.70;;
45392;SDS011;31129;44.810;10.334;2022-08-19T02:40:17;24.83;;;15.00;;
45392;SDS011;31129;44.810;10.334;2022-08-19T02:42:43;10.00;;;7.88;;
45392;SDS011;31129;44.810;10.334;2022-08-19T02:45:11;12.37;;;9.53;;
45392;SDS011;31129;44.810;10.334;2022-08-19T02:47:38;20.08;;;12.63;;
45392;SDS011;31129;44.810;10.334;2022-08-19T02:50:04;15.80;;;10.23;;
45392;SDS011;31129;44.810;10.334;2022-08-19T02:52:31;9.07;;;7.00;;
45392;SDS011;31129;44.810;10.334;2022-08-19T02:54:59;8.38;;;5.95;;
45392;SDS011;31129;44.810;10.334;2022-08-19T02:57:25;13.85;;;8.15;;
45392;SDS011;31129;44.810;10.334;2022-08-19T02:59:51;16.27;;;7.03;;
45392;SDS011;31129;44.810;10.334;2022-08-19T03:02:16;8.63;;;5.32;;
45392;SDS011;31129;44.810;10.334;2022-08-19T03:04:42;13.95;;;6.22;;
45392;SDS011;31129;44.810;10.334;2022-08-19T03:07:08;14.32;;;6.38;;
45392;SDS011;31129;44.810;10.334;2022-08-19T03:09:36;9.40;;;5.50;;
45392;SDS011;31129;44.810;10.334;2022-08-19T03:12:03;6.63;;;3.03;;
45392;SDS011;31129;44.810;10.334;2022-08-19T03:14:32;6.90;;;2.70;;
45392;SDS011;31129;44.810;10.334;2022-08-19T03:16:59;5.60;;;2.83;;
45392;SDS011;31129;44.810;10.334;2022-08-19T03:19:25;6.25;;;2.28;;
45392;SDS011;31129;44.810;10.334;2022-08-19T03:21:51;7.32;;;2.30;;
45392;SDS011;31129;44.810;10.334;2022-08-19T03:24:17;5.03;;;1.70;;
45392;SDS011;31129;44.810;10.334;2022-08-19T03:26:48;4.30;;;1.55;;
45392;SDS011;31129;44.810;10.334;2022-08-19T03:29:16;3.42;;;1.50;;
45392;SDS011;31129;44.810;10.334;2022-08-19T03:31:43;3.65;;;1.67;;
45392;SDS011;31129;44.810;10.334;2022-08-19T03:34:14;6.50;;;1.73;;
45392;SDS011;31129;44.810;10.334;2022-08-19T03:36:42;3.33;;;1.40;;
45392;SDS011;31129;44.810;10.334;2022-08-19T03:39:09;5.60;;;1.77;;
45392;SDS011;31129;44.810;10.334;2022-08-19T03:41:39;3.08;;;1.40;;
45392;SDS011;31129;44.810;10.334;2022-08-19T03:44:05;11.55;;;3.03;;
45392;SDS011;31129;44.810;10.334;2022-08-19T03:46:33;7.25;;;2.80;;
45392;SDS011;31129;44.810;10.334;2022-08-19T03:49:00;11.40;;;2.10;;
45392;SDS011;31129;44.810;10.334;2022-08-19T03:51:35;8.32;;;2.17;;
45392;SDS011;31129;44.810;10.334;2022-08-19T03:54:03;8.27;;;2.00;;
45392;SDS011;31129;44.810;10.334;2022-08-19T03:56:33;5.25;;;2.47;;
45392;SDS011;31129;44.810;10.334;2022-08-19T03:59:00;7.68;;;1.80;;
45392;SDS011;31129;44.810;10.334;2022-08-19T04:01:26;6.25;;;1.70;;
45392;SDS011;31129;44.810;10.334;2022-08-19T04:03:53;9.40;;;1.73;;
45392;SDS011;31129;44.810;10.334;2022-08-19T04:06:22;8.30;;;1.67;;
45392;SDS011;31129;44.810;10.334;2022-08-19T04:08:50;4.47;;;1.95;;
45392;SDS011;31129;44.810;10.334;2022-08-19T04:11:20;7.75;;;1.67;;
45392;SDS011;31129;44.810;10.334;2022-08-19T04:13:48;5.82;;;1.75;;
45392;SDS011;31129;44.810;10.334;2022-08-19T04:18:42;6.13;;;1.60;;
45392;SDS011;31129;44.810;10.334;2022-08-19T04:21:08;8.45;;;2.00;;
45392;SDS011;31129;44.810;10.334;2022-08-19T04:23:44;6.97;;;1.80;;
45392;SDS011;31129;44.810;10.334;2022-08-19T04:26:13;4.82;;;1.80;;
45392;SDS011;31129;44.810;10.334;2022-08-19T04:28:41;5.68;;;1.48;;
45392;SDS011;31129;44.810;10.334;2022-08-19T04:31:12;4.60;;;2.15;;
45392;SDS011;31129;44.810;10.334;2022-08-19T04:33:41;7.40;;;1.73;;
45392;SDS011;31129;44.810;10.334;2022-08-19T04:36:07;3.10;;;1.80;;
45392;SDS011;31129;44.810;10.334;2022-08-19T04:38:35;3.70;;;1.33;;
45392;SDS011;31129;44.810;10.334;2022-08-19T04:41:02;2.95;;;1.20;;
45392;SDS011;31129;44.810;10.334;2022-08-19T04:43:46;4.55;;;1.40;;
45392;SDS011;31129;44.810;10.334;2022-08-19T04:46:15;1.88;;;1.15;;
45392;SDS011;31129;44.810;10.334;2022-08-19T04:48:41;4.22;;;1.52;;
45392;SDS011;31129;44.810;10.334;2022-08-19T04:51:09;8.55;;;1.63;;
45392;SDS011;31129;44.810;10.334;2022-08-19T04:53:38;3.17;;;1.13;;
45392;SDS011;31129;44.810;10.334;2022-08-19T04:56:10;3.55;;;1.30;;
45392;SDS011;31129;44.810;10.334;2022-08-19T04:58:39;2.83;;;1.30;;
45392;SDS011;31129;44.810;10.334;2022-08-19T05:01:07;3.38;;;1.10;;
45392;SDS011;31129;44.810;10.334;2022-08-19T05:03:42;3.53;;;1.38;;
45392;SDS011;31129;44.810;10.334;2022-08-19T05:06:09;5.25;;;1.75;;
45392;SDS011;31129;44.810;10.334;2022-08-19T05:08:38;4.07;;;1.58;;
45392;SDS011;31129;44.810;10.334;2022-08-19T05:11:13;4.10;;;1.90;;
45392;SDS011;31129;44.810;10.334;2022-08-19T05:13:41;4.45;;;1.38;;
45392;SDS011;31129;44.810;10.334;2022-08-19T05:16:08;1.95;;;1.05;;
45392;SDS011;31129;44.810;10.334;2022-08-19T05:18:35;3.35;;;1.50;;
45392;SDS011;31129;44.810;10.334;2022-08-19T05:21:19;3.78;;;1.55;;
45392;SDS011;31129;44.810;10.334;2022-08-19T05:24:04;4.18;;;1.10;;
45392;SDS011;31129;44.810;10.334;2022-08-19T05:26:39;3.20;;;1.13;;
45392;SDS011;31129;44.810;10.334;2022-08-19T05:29:07;2.45;;;1.20;;
45392;SDS011;31129;44.810;10.334;2022-08-19T05:31:34;2.70;;;1.30;;
45392;SDS011;31129;44.810;10.334;2022-08-19T05:34:00;4.70;;;1.58;;
45392;SDS011;31129;44.810;10.334;2022-08-19T05:36:26;4.00;;;1.63;;
45392;SDS011;31129;44.810;10.334;2022-08-19T05:38:53;2.33;;;1.50;;
45392;SDS011;31129;44.810;10.334;2022-08-19T05:41:19;4.35;;;1.55;;
45392;SDS011;31129;44.810;10.334;2022-08-19T05:43:46;7.55;;;1.50;;
45392;SDS011;31129;44.810;10.334;2022-08-19T05:46:18;4.55;;;1.50;;
45392;SDS011;31129;44.810;10.334;2022-08-19T05:48:44;2.97;;;1.15;;
45392;SDS011;31129;44.810;10.334;2022-08-19T05:51:10;4.43;;;1.58;;
45392;SDS011;31129;44.810;10.334;2022-08-19T05:53:37;3.22;;;1.00;;
45392;SDS011;31129;44.810;10.334;2022-08-19T05:56:06;2.75;;;1.08;;
45392;SDS011;31129;44.810;10.334;2022-08-19T05:58:33;2.33;;;1.02;;
45392;SDS011;31129;44.810;10.334;2022-08-19T06:00:59;2.95;;;1.10;;
45392;SDS011;31129;44.810;10.334;2022-08-19T06:03:30;3.55;;;1.40;;
45392;SDS011;31129;44.810;10.334;2022-08-19T06:05:59;2.33;;;0.80;;
45392;SDS011;31129;44.810;10.334;2022-08-19T06:08:25;2.83;;;0.80;;
45392;SDS011;31129;44.810;10.334;2022-08-19T06:10:52;4.30;;;0.90;;
45392;SDS011;31129;44.810;10.334;2022-08-19T06:13:18;1.85;;;0.88;;
45392;SDS011;31129;44.810;10.334;2022-08-19T06:15:44;5.20;;;1.20;;
45392;SDS011;31129;44.810;10.334;2022-08-19T06:18:11;2.03;;;0.80;;
45392;SDS011;31129;44.810;10.334;2022-08-19T06:20:38;1.63;;;0.70;;
45392;SDS011;31129;44.810;10.334;2022-08-19T06:23:04;5.13;;;1.10;;
45392;SDS011;31129;44.810;10.334;2022-08-19T06:25:29;5.10;;;1.10;;
45392;SDS011;31129;44.810;10.334;2022-08-19T06:27:55;3.25;;;1.05;;
45392;SDS011;31129;44.810;10.334;2022-08-19T06:30:21;1.75;;;0.90;;
45392;SDS011;31129;44.810;10.334;2022-08-19T06:32:46;2.25;;;1.35;;
45392;SDS011;31129;44.810;10.334;2022-08-19T06:35:12;2.97;;;1.13;;
45392;SDS011;31129;44.810;10.334;2022-08-19T06:37:38;3.70;;;1.10;;
45392;SDS011;31129;44.810;10.334;2022-08-19T06:40:04;2.15;;;1.00;;
45392;SDS011;31129;44.810;10.334;2022-08-19T06:42:30;2.63;;;0.90;;
45392;SDS011;31129;44.810;10.334;2022-08-19T06:44:56;3.08;;;1.05;;
45392;SDS011;31129;44.810;10.334;2022-08-19T06:47:23;4.32;;;1.50;;
45392;SDS011;31129;44.810;10.334;2022-08-19T06:49:48;3.17;;;1.30;;
45392;SDS011;31129;44.810;10.334;2022-08-19T06:52:14;2.85;;;1.20;;
45392;SDS011;31129;44.810;10.334;2022-08-19T06:54:40;3.67;;;1.55;;
45392;SDS011;31129;44.810;10.334;2022-08-19T06:57:07;3.35;;;1.30;;
45392;SDS011;31129;44.810;10.334;2022-08-19T06:59:34;2.93;;;1.27;;
45392;SDS011;31129;44.810;10.334;2022-08-19T07:02:03;3.38;;;1.80;;
45392;SDS011;31129;44.810;10.334;2022-08-19T07:04:33;5.13;;;1.42;;
45392;SDS011;31129;44.810;10.334;2022-08-19T07:07:01;5.22;;;1.80;;
45392;SDS011;31129;44.810;10.334;2022-08-19T07:09:33;4.50;;;1.30;;
45392;SDS011;31129;44.810;10.334;2022-08-19T07:11:59;2.92;;;1.55;;
45392;SDS011;31129;44.810;10.334;2022-08-19T07:14:26;5.00;;;2.35;;
45392;SDS011;31129;44.810;10.334;2022-08-19T07:16:53;4.10;;;1.85;;
45392;SDS011;31129;44.810;10.334;2022-08-19T07:19:21;4.55;;;2.33;;
45392;SDS011;31129;44.810;10.334;2022-08-19T07:21:49;3.40;;;1.30;;
45392;SDS011;31129;44.810;10.334;2022-08-19T07:24:22;1.85;;;1.27;;
45392;SDS011;31129;44.810;10.334;2022-08-19T07:26:50;3.47;;;1.60;;
45392;SDS011;31129;44.810;10.334;2022-08-19T07:29:17;3.90;;;1.45;;
45392;SDS011;31129;44.810;10.334;2022-08-19T07:31:44;3.88;;;1.70;;
45392;SDS011;31129;44.810;10.334;2022-08-19T07:34:10;7.10;;;1.73;;
45392;SDS011;31129;44.810;10.334;2022-08-19T07:36:40;3.13;;;1.45;;
45392;SDS011;31129;44.810;10.334;2022-08-19T07:39:15;3.42;;;1.65;;
45392;SDS011;31129;44.810;10.334;2022-08-19T07:41:46;2.20;;;1.30;;
45392;SDS011;31129;44.810;10.334;2022-08-19T07:44:12;4.65;;;1.88;;
45392;SDS011;31129;44.810;10.334;2022-08-19T07:46:40;3.22;;;1.20;;
45392;SDS011;31129;44.810;10.334;2022-08-19T07:49:09;3.22;;;1.10;;
45392;SDS011;31129;44.810;10.334;2022-08-19T07:51:39;3.28;;;1.30;;
45392;SDS011;31129;44.810;10.334;2022-08-19T07:54:05;4.75;;;1.10;;
45392;SDS011;31129;44.810;10.334;2022-08-19T07:56:31;2.33;;;0.85;;
45392;SDS011;31129;44.810;10.334;2022-08-19T07:58:56;2.50;;;1.15;;
45392;SDS011;31129;44.810;10.334;2022-08-19T08:01:24;1.63;;;1.05;;
45392;SDS011;31129;44.810;10.334;2022-08-19T08:03:51;6.82;;;1.20;;
45392;SDS011;31129;44.810;10.334;2022-08-19T08:06:36;2.83;;;1.02;;
45392;SDS011;31129;44.810;10.334;2022-08-19T08:09:29;4.53;;;1.33;;
45392;SDS011;31129;44.810;10.334;2022-08-19T08:12:05;7.78;;;1.10;;
45392;SDS011;31129;44.810;10.334;2022-08-19T08:14:39;6.50;;;1.02;;
45392;SDS011;31129;44.810;10.334;2022-08-19T08:17:14;4.75;;;1.20;;
45392;SDS011;31129;44.810;10.334;2022-08-19T08:19:41;6.22;;;1.10;;
45392;SDS011;31129;44.810;10.334;2022-08-19T08:22:07;4.07;;;0.88;;
45392;SDS011;31129;44.810;10.334;2022-08-19T08:24:35;3.90;;;1.00;;
45392;SDS011;31129;44.810;10.334;2022-08-19T08:27:01;1.88;;;0.90;;
45392;SDS011;31129;44.810;10.334;2022-08-19T08:29:29;21.83;;;2.15;;
45392;SDS011;31129;44.810;10.334;2022-08-19T08:31:56;9.88;;;1.45;;
45392;SDS011;31129;44.810;10.334;2022-08-19T08:34:22;6.20;;;1.48;;
45392;SDS011;31129;44.810;10.334;2022-08-19T08:36:48;4.50;;;1.20;;
45392;SDS011;31129;44.810;10.334;2022-08-19T08:39:15;2.17;;;1.30;;
45392;SDS011;31129;44.810;10.334;2022-08-19T08:44:22;3.25;;;1.98;;
45392;SDS011;31129;44.810;10.334;2022-08-19T08:47:04;4.18;;;1.50;;
45392;SDS011;31129;44.810;10.334;2022-08-19T08:49:45;5.75;;;1.90;;
45392;SDS011;31129;44.810;10.334;2022-08-19T08:54:50;3.20;;;1.63;;
45392;SDS011;31129;44.810;10.334;2022-08-19T09:00:11;3.72;;;1.27;;
45392;SDS011;31129;44.810;10.334;2022-08-19T09:02:42;3.35;;;1.33;;
45392;SDS011;31129;44.810;10.334;2022-08-19T09:05:08;3.22;;;1.30;;
45392;SDS011;31129;44.810;10.334;2022-08-19T09:15:32;2.28;;;1.08;;
45392;SDS011;31129;44.810;10.334;2022-08-19T09:18:02;1.10;;;0.77;;
45392;SDS011;31129;44.810;10.334;2022-08-19T09:20:29;1.80;;;0.80;;
45392;SDS011;31129;44.810;10.334;2022-08-19T09:22:56;2.13;;;0.88;;
45392;SDS011;31129;44.810;10.334;2022-08-19T09:25:22;3.50;;;1.08;;
45392;SDS011;31129;44.810;10.334;2022-08-19T09:27:48;4.60;;;1.20;;
45392;SDS011;31129;44.810;10.334;2022-08-19T09:30:16;1.92;;;0.90;;
45392;SDS011;31129;44.810;10.334;2022-08-19T09:32:44;4.20;;;0.93;;
45392;SDS011;31129;44.810;10.334;2022-08-19T09:35:10;1.90;;;0.80;;
45392;SDS011;31129;44.810;10.334;2022-08-19T09:37:37;2.22;;;0.80;;
45392;SDS011;31129;44.810;10.334;2022-08-19T09:40:03;3.45;;;0.85;;
45392;SDS011;31129;44.810;10.334;2022-08-19T09:42:29;2.17;;;1.13;;
45392;SDS011;31129;44.810;10.334;2022-08-19T09:44:55;1.95;;;0.82;;
45392;SDS011;31129;44.810;10.334;2022-08-19T09:47:20;7.50;;;1.50;;
45392;SDS011;31129;44.810;10.334;2022-08-19T09:49:49;3.47;;;1.15;;
45392;SDS011;31129;44.810;10.334;2022-08-19T09:52:15;2.13;;;0.95;;
45392;SDS011;31129;44.810;10.334;2022-08-19T09:54:41;3.38;;;0.75;;
45392;SDS011;31129;44.810;10.334;2022-08-19T09:57:07;3.83;;;1.33;;
45392;SDS011;31129;44.810;10.334;2022-08-19T09:59:32;1.40;;;0.88;;
45392;SDS011;31129;44.810;10.334;2022-08-19T10:01:58;2.67;;;0.85;;
45392;SDS011;31129;44.810;10.334;2022-08-19T10:04:24;1.88;;;0.52;;
45392;SDS011;31129;44.810;10.334;2022-08-19T10:07:09;2.42;;;0.60;;
45392;SDS011;31129;44.810;10.334;2022-08-19T10:09:35;1.52;;;0.50;;
45392;SDS011;31129;44.810;10.334;2022-08-19T10:12:02;2.85;;;0.90;;
45392;SDS011;31129;44.810;10.334;2022-08-19T10:14:29;2.08;;;0.80;;
45392;SDS011;31129;44.810;10.334;2022-08-19T10:16:55;1.55;;;0.63;;
45392;SDS011;31129;44.810;10.334;2022-08-19T10:19:21;2.88;;;0.82;;
45392;SDS011;31129;44.810;10.334;2022-08-19T10:21:47;2.38;;;0.52;;
45392;SDS011;31129;44.810;10.334;2022-08-19T10:24:12;1.02;;;0.80;;
45392;SDS011;31129;44.810;10.334;2022-08-19T10:26:39;1.75;;;0.82;;
45392;SDS011;31129;44.810;10.334;2022-08-19T10:29:10;1.05;;;0.88;;
45392;SDS011;31129;44.810;10.334;2022-08-19T10:31:36;1.02;;;0.40;;
45392;SDS011;31129;44.810;10.334;2022-08-19T10:34:02;1.13;;;0.60;;
45392;SDS011;31129;44.810;10.334;2022-08-19T10:36:31;2.28;;;0.60;;
45392;SDS011;31129;44.810;10.334;2022-08-19T10:39:02;0.80;;;0.80;;
45392;SDS011;31129;44.810;10.334;2022-08-19T10:41:32;0.90;;;0.75;;
45392;SDS011;31129;44.810;10.334;2022-08-19T10:44:00;2.15;;;0.85;;
45392;SDS011;31129;44.810;10.334;2022-08-19T10:46:31;1.83;;;0.90;;
45392;SDS011;31129;44.810;10.334;2022-08-19T10:48:59;0.68;;;0.65;;
45392;SDS011;31129;44.810;10.334;2022-08-19T10:51:26;1.05;;;0.80;;
45392;SDS011;31129;44.810;10.334;2022-08-19T10:54:11;2.40;;;0.90;;
45392;SDS011;31129;44.810;10.334;2022-08-19T10:56:36;2.63;;;1.00;;
45392;SDS011;31129;44.810;10.334;2022-08-19T10:59:18;1.42;;;0.70;;
45392;SDS011;31129;44.810;10.334;2022-08-19T11:01:46;1.13;;;0.70;;
45392;SDS011;31129;44.810;10.334;2022-08-19T11:04:13;1.00;;;0.63;;
45392;SDS011;31129;44.810;10.334;2022-08-19T11:06:43;1.70;;;0.68;;
45392;SDS011;31129;44.810;10.334;2022-08-19T11:09:10;0.93;;;0.82;;
45392;SDS011;31129;44.810;10.334;2022-08-19T11:11:37;1.98;;;0.70;;
45392;SDS011;31129;44.810;10.334;2022-08-19T11:14:06;3.47;;;0.70;;
45392;SDS011;31129;44.810;10.334;2022-08-19T11:16:37;1.77;;;0.60;;
45392;SDS011;31129;44.810;10.334;2022-08-19T11:19:04;1.40;;;0.60;;
45392;SDS011;31129;44.810;10.334;2022-08-19T11:21:31;1.17;;;0.85;;
45392;SDS011;31129;44.810;10.334;2022-08-19T11:24:00;4.07;;;0.70;;
45392;SDS011;31129;44.810;10.334;2022-08-19T11:26:29;1.95;;;0.80;;
45392;SDS011;31129;44.810;10.334;2022-08-19T11:28:56;1.13;;;0.82;;
45392;SDS011;31129;44.810;10.334;2022-08-19T11:31:25;2.83;;;1.00;;
45392;SDS011;31129;44.810;10.334;2022-08-19T11:33:52;2.75;;;0.70;;
45392;SDS011;31129;44.810;10.334;2022-08-19T11:36:21;1.58;;;0.80;;
45392;SDS011;31129;44.810;10.334;2022-08-19T11:38:47;3.42;;;0.80;;
45392;SDS011;31129;44.810;10.334;2022-08-19T11:41:15;2.05;;;0.63;;
45392;SDS011;31129;44.810;10.334;2022-08-19T11:43:42;2.83;;;0.60;;
45392;SDS011;31129;44.810;10.334;2022-08-19T11:46:09;2.25;;;0.70;;
45392;SDS011;31129;44.810;10.334;2022-08-19T11:48:37;1.67;;;0.50;;
45392;SDS011;31129;44.810;10.334;2022-08-19T11:51:05;0.98;;;0.80;;
45392;SDS011;31129;44.810;10.334;2022-08-19T11:53:35;2.85;;;0.70;;
45392;SDS011;31129;44.810;10.334;2022-08-19T11:56:01;0.85;;;0.50;;
45392;SDS011;31129;44.810;10.334;2022-08-19T11:58:28;2.17;;;0.70;;
45392;SDS011;31129;44.810;10.334;2022-08-19T12:00:54;2.35;;;0.52;;
45392;SDS011;31129;44.810;10.334;2022-08-19T12:03:20;2.08;;;0.68;;
45392;SDS011;31129;44.810;10.334;2022-08-19T12:05:46;2.50;;;0.77;;
45392;SDS011;31129;44.810;10.334;2022-08-19T12:08:15;0.93;;;0.55;;
45392;SDS011;31129;44.810;10.334;2022-08-19T12:10:41;1.25;;;0.68;;
45392;SDS011;31129;44.810;10.334;2022-08-19T12:13:11;1.88;;;0.80;;
45392;SDS011;31129;44.810;10.334;2022-08-19T12:15:43;1.83;;;0.70;;
45392;SDS011;31129;44.810;10.334;2022-08-19T12:18:10;3.85;;;0.85;;
45392;SDS011;31129;44.810;10.334;2022-08-19T12:20:37;0.52;;;0.40;;
45392;SDS011;31129;44.810;10.334;2022-08-19T12:23:05;0.85;;;0.68;;
45392;SDS011;31129;44.810;10.334;2022-08-19T12:25:32;3.25;;;0.77;;
45392;SDS011;31129;44.810;10.334;2022-08-19T12:27:58;2.17;;;0.70;;
45392;SDS011;31129;44.810;10.334;2022-08-19T12:30:24;2.50;;;0.77;;
45392;SDS011;31129;44.810;10.334;2022-08-19T12:32:49;1.27;;;0.55;;
45392;SDS011;31129;44.810;10.334;2022-08-19T12:35:16;0.63;;;0.50;;
45392;SDS011;31129;44.810;10.334;2022-08-19T12:37:45;1.48;;;0.60;;
45392;SDS011;31129;44.810;10.334;2022-08-19T12:40:11;2.03;;;0.98;;
45392;SDS011;31129;44.810;10.334;2022-08-19T12:42:38;2.55;;;0.80;;
45392;SDS011;31129;44.810;10.334;2022-08-19T12:45:11;2.63;;;0.80;;
45392;SDS011;31129;44.810;10.334;2022-08-19T12:47:38;2.75;;;0.60;;
45392;SDS011;31129;44.810;10.334;2022-08-19T12:50:04;0.95;;;0.50;;
45392;SDS011;31129;44.810;10.334;2022-08-19T12:52:33;5.93;;;0.77;;
45392;SDS011;31129;44.810;10.334;2022-08-19T12:55:01;2.47;;;0.57;;
45392;SDS011;31129;44.810;10.334;2022-08-19T12:57:28;3.05;;;0.80;;
45392;SDS011;31129;44.810;10.334;2022-08-19T12:59:54;1.20;;;0.65;;
45392;SDS011;31129;44.810;10.334;2022-08-19T13:02:19;1.08;;;0.63;;
45392;SDS011;31129;44.810;10.334;2022-08-19T13:04:46;2.53;;;0.70;;
45392;SDS011;31129;44.810;10.334;2022-08-19T13:07:11;1.92;;;0.63;;
45392;SDS011;31129;44.810;10.334;2022-08-19T13:09:37;1.33;;;0.60;;
45392;SDS011;31129;44.810;10.334;2022-08-19T13:12:05;2.30;;;0.60;;
45392;SDS011;31129;44.810;10.334;2022-08-19T13:14:35;2.85;;;0.70;;
45392;SDS011;31129;44.810;10.334;2022-08-19T13:17:01;2.28;;;0.80;;
45392;SDS011;31129;44.810;10.334;2022-08-19T13:19:26;1.05;;;0.60;;
45392;SDS011;31129;44.810;10.334;2022-08-19T13:21:53;3.47;;;0.90;;
45392;SDS011;31129;44.810;10.334;2022-08-19T13:24:20;2.78;;;0.77;;
45392;SDS011;31129;44.810;10.334;2022-08-19T13:26:46;0.73;;;0.60;;
45392;SDS011;31129;44.810;10.334;2022-08-19T13:29:12;1.00;;;0.40;;
45392;SDS011;31129;44.810;10.334;2022-08-19T13:31:56;1.00;;;0.50;;
45392;SDS011;31129;44.810;10.334;2022-08-19T13:34:41;0.80;;;0.50;;
45392;SDS011;31129;44.810;10.334;2022-08-19T13:37:07;0.63;;;0.50;;
45392;SDS011;31129;44.810;10.334;2022-08-19T13:39:33;2.85;;;0.98;;
45392;SDS011;31129;44.810;10.334;2022-08-19T13:41:59;0.68;;;0.40;;
45392;SDS011;31129;44.810;10.334;2022-08-19T13:44:26;0.82;;;0.50;;
45392;SDS011;31129;44.810;10.334;2022-08-19T13:46:54;2.03;;;0.50;;
45392;SDS011;31129;44.810;10.334;2022-08-19T13:49:24;0.93;;;0.55;;
45392;SDS011;31129;44.810;10.334;2022-08-19T13:51:50;0.35;;;0.35;;
45392;SDS011;31129;44.810;10.334;2022-08-19T13:54:15;1.10;;;0.47;;
45392;SDS011;31129;44.810;10.334;2022-08-19T13:56:42;1.23;;;0.50;;
45392;SDS011;31129;44.810;10.334;2022-08-19T13:59:12;0.80;;;0.30;;
45392;SDS011;31129;44.810;10.334;2022-08-19T14:01:38;3.35;;;0.68;;
45392;SDS011;31129;44.810;10.334;2022-08-19T14:04:04;3.77;;;1.03;;
45392;SDS011;31129;44.810;10.334;2022-08-19T14:06:33;0.52;;;0.50;;
45392;SDS011;31129;44.810;10.334;2022-08-19T14:08:59;0.80;;;0.50;;
45392;SDS011;31129;44.810;10.334;2022-08-19T14:11:29;3.30;;;0.80;;
45392;SDS011;31129;44.810;10.334;2022-08-19T14:13:55;1.80;;;0.65;;
45392;SDS011;31129;44.810;10.334;2022-08-19T14:16:20;2.03;;;0.60;;
45392;SDS011;31129;44.810;10.334;2022-08-19T14:21:15;2.15;;;0.50;;
45392;SDS011;31129;44.810;10.334;2022-08-19T14:23:43;1.75;;;0.70;;
45392;SDS011;31129;44.810;10.334;2022-08-19T14:26:11;1.45;;;0.60;;
45392;SDS011;31129;44.810;10.334;2022-08-19T14:28:39;2.85;;;0.65;;
45392;SDS011;31129;44.810;10.334;2022-08-19T14:31:07;5.13;;;0.98;;
45392;SDS011;31129;44.810;10.334;2022-08-19T14:33:33;1.90;;;1.00;;
45392;SDS011;31129;44.810;10.334;2022-08-19T14:35:59;1.75;;;0.70;;
45392;SDS011;31129;44.810;10.334;2022-08-19T14:38:25;2.50;;;0.65;;
45392;SDS011;31129;44.810;10.334;2022-08-19T14:40:51;1.65;;;0.82;;
45392;SDS011;31129;44.810;10.334;2022-08-19T14:43:17;1.48;;;0.80;;
45392;SDS011;31129;44.810;10.334;2022-08-19T14:45:42;1.92;;;0.95;;
45392;SDS011;31129;44.810;10.334;2022-08-19T14:48:08;2.67;;;0.73;;
45392;SDS011;31129;44.810;10.334;2022-08-19T14:50:34;1.05;;;0.80;;
45392;SDS011;31129;44.810;10.334;2022-08-19T14:53:03;1.60;;;0.68;;
45392;SDS011;31129;44.810;10.334;2022-08-19T14:55:31;2.95;;;0.77;;
45392;SDS011;31129;44.810;10.334;2022-08-19T14:57:57;2.05;;;0.70;;
45392;SDS011;31129;44.810;10.334;2022-08-19T15:00:23;2.47;;;0.80;;
45392;SDS011;31129;44.810;10.334;2022-08-19T15:02:50;5.30;;;1.20;;